createdAt,value
2022-07-26T00:01:42.476Z,17.67
2022-07-26T00:04:49.427Z,17.64
2022-07-26T00:08:16.273Z,17.62
2022-07-26T00:11:25.882Z,17.58
2022-07-26T00:14:31.632Z,17.46
2022-07-26T00:17:37.513Z,17.51
2022-07-26T00:20:44.258Z,17.63
2022-07-26T00:23:50.125Z,17.66
2022-07-26T00:26:58.831Z,17.60
2022-07-26T00:30:04.445Z,17.64
2022-07-26T00:33:10.374Z,17.62
2022-07-26T00:36:16.361Z,17.75
2022-07-26T00:39:21.945Z,17.79
2022-07-26T00:42:30.070Z,17.79
2022-07-26T00:45:35.771Z,17.75
2022-07-26T00:48:41.475Z,17.88
2022-07-26T00:51:47.180Z,17.77
2022-07-26T00:54:54.871Z,17.72
2022-07-26T00:58:11.016Z,17.73
2022-07-26T01:01:17.838Z,17.66
2022-07-26T01:04:23.438Z,17.55
2022-07-26T01:07:29.179Z,17.59
2022-07-26T01:10:34.914Z,17.49
2022-07-26T01:13:50.134Z,17.51
2022-07-26T01:16:56.827Z,17.42
2022-07-26T01:20:02.483Z,17.47
2022-07-26T01:23:11.738Z,17.39
2022-07-26T01:26:17.405Z,17.40
2022-07-26T01:29:34.764Z,17.29
2022-07-26T01:32:42.055Z,17.22
2022-07-26T01:35:48.316Z,17.18
2022-07-26T01:38:58.832Z,17.16
2022-07-26T01:42:04.543Z,17.13
2022-07-26T01:45:11.866Z,17.05
2022-07-26T01:48:17.478Z,16.97
2022-07-26T01:51:23.114Z,16.82
2022-07-26T01:54:32.466Z,16.76
2022-07-26T01:57:38.396Z,16.71
2022-07-26T02:00:44.131Z,16.66
2022-07-26T02:03:49.679Z,16.48
2022-07-26T02:06:56.360Z,16.57
2022-07-26T02:10:04.494Z,16.53
2022-07-26T02:13:10.157Z,16.57
2022-07-26T02:16:18.810Z,16.37
2022-07-26T02:19:24.664Z,16.34
2022-07-26T02:22:30.250Z,16.25
2022-07-26T02:25:38.408Z,16.26
2022-07-26T02:28:43.915Z,16.26
2022-07-26T02:31:49.565Z,16.28
2022-07-26T02:34:55.123Z,16.18
2022-07-26T02:38:06.181Z,16.17
2022-07-26T02:41:14.396Z,16.13
2022-07-26T02:44:20.033Z,16.12
2022-07-26T02:47:25.628Z,16.14
2022-07-26T02:50:33.037Z,15.97
2022-07-26T02:53:38.555Z,15.95
2022-07-26T02:56:47.243Z,16.02
2022-07-26T03:00:00.326Z,15.95
2022-07-26T03:03:08.166Z,15.91
2022-07-26T03:06:13.813Z,15.83
2022-07-26T03:09:26.224Z,15.87
2022-07-26T03:12:39.557Z,15.81
2022-07-26T03:15:45.254Z,15.74
2022-07-26T03:18:50.958Z,15.69
2022-07-26T03:21:56.486Z,15.58
2022-07-26T03:25:02.486Z,15.50
2022-07-26T03:28:12.796Z,15.53
2022-07-26T03:31:24.097Z,15.45
2022-07-26T03:34:30.665Z,15.55
2022-07-26T03:37:45.009Z,15.58
2022-07-26T03:40:52.753Z,15.56
2022-07-26T03:44:00.957Z,15.57
2022-07-26T03:47:06.722Z,15.58
2022-07-26T03:50:14.369Z,15.63
2022-07-26T03:53:20.220Z,15.74
2022-07-26T03:56:33.711Z,15.85
2022-07-26T03:59:44.900Z,15.92
2022-07-26T04:02:50.636Z,16.02
2022-07-26T04:05:56.620Z,16.14
2022-07-26T04:09:15.579Z,16.29
2022-07-26T04:12:21.193Z,16.49
2022-07-26T04:15:29.531Z,16.52
2022-07-26T04:18:35.457Z,16.67
2022-07-26T04:21:41.081Z,16.65
2022-07-26T04:24:47.763Z,16.63
2022-07-26T04:27:54.604Z,16.61
2022-07-26T04:31:16.167Z,16.70
2022-07-26T04:34:26.802Z,16.60
2022-07-26T04:37:33.252Z,16.61
2022-07-26T04:40:41.036Z,16.68
2022-07-26T04:43:46.962Z,16.82
2022-07-26T04:46:55.141Z,17.04
2022-07-26T04:50:00.756Z,17.61
2022-07-26T04:53:08.596Z,18.25
2022-07-26T04:56:14.688Z,18.84
2022-07-26T04:59:22.030Z,19.45
2022-07-26T05:02:31.162Z,19.97
2022-07-26T05:05:37.512Z,20.37
2022-07-26T05:08:43.646Z,20.64
2022-07-26T05:11:50.169Z,20.92
2022-07-26T05:14:55.749Z,20.85
2022-07-26T05:18:13.617Z,20.84
2022-07-26T05:21:23.032Z,21.03
2022-07-26T05:24:43.530Z,21.20
2022-07-26T05:27:49.615Z,21.55
2022-07-26T05:30:55.647Z,21.82
2022-07-26T05:34:04.874Z,21.76
2022-07-26T05:37:13.682Z,21.92
2022-07-26T05:40:22.462Z,22.10
2022-07-26T05:43:41.721Z,22.16
2022-07-26T05:46:48.051Z,22.25
2022-07-26T05:49:58.518Z,22.13
2022-07-26T05:53:04.778Z,22.23
2022-07-26T05:56:11.905Z,22.44
2022-07-26T05:59:18.041Z,22.83
2022-07-26T06:02:29.740Z,22.66
2022-07-26T06:05:38.362Z,22.83
2022-07-26T06:08:44.623Z,22.83
2022-07-26T06:11:50.848Z,22.99
2022-07-26T06:14:57.268Z,23.05
2022-07-26T06:18:19.212Z,22.85
2022-07-26T06:21:27.834Z,22.59
2022-07-26T06:24:33.894Z,22.62
2022-07-26T06:27:39.957Z,22.31
2022-07-26T06:30:49.337Z,22.35
2022-07-26T06:33:55.261Z,22.05
2022-07-26T06:37:04.194Z,21.82
2022-07-26T06:40:15.574Z,21.81
2022-07-26T06:43:23.836Z,21.85
2022-07-26T06:46:30.110Z,21.21
2022-07-26T06:49:36.281Z,20.98
2022-07-26T06:52:47.835Z,21.17
2022-07-26T06:55:55.012Z,21.05
2022-07-26T06:59:03.072Z,21.32
2022-07-26T07:02:11.843Z,21.44
2022-07-26T07:05:19.801Z,21.31
2022-07-26T07:08:30.639Z,20.96
2022-07-26T07:11:37.930Z,20.62
2022-07-26T07:14:45.061Z,19.90
2022-07-26T07:17:58.457Z,19.82
2022-07-26T07:21:08.555Z,19.75
2022-07-26T07:24:18.259Z,19.55
2022-07-26T07:27:24.165Z,19.43
2022-07-26T07:30:33.355Z,19.31
2022-07-26T07:33:53.481Z,19.24
2022-07-26T07:37:00.860Z,19.19
2022-07-26T07:40:17.710Z,18.96
2022-07-26T07:43:26.841Z,18.97
2022-07-26T07:46:33.091Z,19.03
2022-07-26T07:49:40.003Z,18.94
2022-07-26T07:52:47.085Z,18.99
2022-07-26T07:55:56.621Z,18.93
2022-07-26T07:59:08.112Z,18.68
2022-07-26T08:02:27.758Z,18.64
2022-07-26T08:05:33.914Z,18.63
2022-07-26T08:08:41.361Z,18.68
2022-07-26T08:11:53.715Z,18.63
2022-07-26T08:15:07.509Z,18.63
2022-07-26T08:18:22.247Z,18.48
2022-07-26T08:21:29.673Z,18.68
2022-07-26T08:24:35.949Z,18.73
2022-07-26T08:27:51.098Z,18.71
2022-07-26T08:31:14.948Z,18.98
2022-07-26T08:34:22.197Z,18.99
2022-07-26T08:37:38.295Z,19.00
2022-07-26T08:40:44.733Z,19.16
2022-07-26T08:43:53.941Z,19.25
2022-07-26T08:46:59.977Z,19.17
2022-07-26T08:50:06.310Z,19.04
2022-07-26T08:53:17.321Z,19.12
2022-07-26T08:56:23.436Z,19.39
2022-07-26T08:59:33.460Z,19.45
2022-07-26T09:02:44.174Z,19.40
2022-07-26T09:05:56.894Z,19.43
2022-07-26T09:09:15.204Z,19.76
2022-07-26T09:12:23.766Z,19.80
2022-07-26T09:15:32.280Z,20.09
2022-07-26T09:18:38.817Z,20.41
2022-07-26T09:21:45.082Z,20.49
2022-07-26T09:24:51.755Z,20.56
2022-07-26T09:28:06.526Z,20.64
2022-07-26T09:31:32.121Z,20.60
2022-07-26T09:34:44.412Z,20.41
2022-07-26T09:37:58.302Z,20.21
2022-07-26T09:41:10.461Z,20.04
2022-07-26T09:44:28.763Z,19.83
2022-07-26T09:47:44.047Z,19.67
2022-07-26T09:50:52.050Z,19.49
2022-07-26T09:53:58.267Z,19.28
2022-07-26T09:57:05.403Z,19.12
2022-07-26T10:00:13.947Z,19.07
2022-07-26T10:03:34.247Z,18.96
2022-07-26T10:06:40.979Z,19.01
2022-07-26T10:10:00.637Z,18.94
2022-07-26T10:13:26.986Z,18.89
2022-07-26T10:16:34.697Z,18.74
2022-07-26T10:19:47.395Z,18.66
2022-07-26T10:23:00.481Z,18.63
2022-07-26T10:26:45.874Z,18.66
2022-07-26T10:30:27.777Z,18.30
2022-07-26T10:33:50.114Z,18.34
2022-07-26T10:37:08.785Z,18.36
2022-07-26T10:40:25.838Z,18.38
2022-07-26T10:43:42.630Z,18.43
2022-07-26T10:47:15.073Z,18.26
2022-07-26T10:50:41.800Z,18.05
2022-07-26T10:54:03.883Z,18.11
2022-07-26T10:57:12.705Z,18.03
2022-07-26T11:00:30.962Z,17.83
2022-07-26T11:03:41.941Z,17.72
2022-07-26T11:06:48.731Z,17.48
2022-07-26T11:09:59.494Z,17.35
2022-07-26T11:13:19.139Z,17.47
2022-07-26T11:16:26.134Z,17.45
2022-07-26T11:19:32.077Z,17.57
2022-07-26T11:22:40.955Z,17.63
2022-07-26T11:26:13.282Z,17.64
2022-07-26T11:29:37.945Z,17.69
2022-07-26T11:32:58.993Z,17.68
2022-07-26T11:36:05.230Z,17.70
2022-07-26T11:39:16.070Z,17.68
2022-07-26T11:42:24.831Z,17.63
2022-07-26T11:45:31.644Z,17.75
2022-07-26T11:48:50.222Z,17.89
2022-07-26T11:52:00.418Z,17.55
2022-07-26T11:55:07.301Z,17.70
2022-07-26T11:58:16.283Z,17.70
2022-07-26T12:01:29.515Z,17.91
2022-07-26T12:04:44.700Z,17.96
2022-07-26T12:08:00.905Z,17.91
2022-07-26T12:11:39.990Z,17.91
2022-07-26T12:15:14.615Z,17.93
2022-07-26T12:18:37.225Z,17.96
2022-07-26T12:21:52.608Z,18.00
2022-07-26T12:25:03.793Z,18.00
2022-07-26T12:28:23.460Z,17.91
2022-07-26T12:31:37.154Z,17.87
2022-07-26T12:34:58.018Z,17.98
2022-07-26T12:38:11.209Z,17.94
2022-07-26T12:41:36.049Z,18.03
2022-07-26T12:44:42.124Z,17.97
2022-07-26T12:47:53.875Z,18.08
2022-07-26T12:51:05.261Z,18.11
2022-07-26T12:54:12.120Z,18.20
2022-07-26T12:57:19.221Z,18.13
2022-07-26T13:00:25.187Z,18.23
2022-07-26T13:03:34.132Z,18.29
2022-07-26T13:06:40.151Z,18.41
2022-07-26T13:09:46.759Z,18.41
2022-07-26T13:12:52.923Z,18.37
2022-07-26T13:15:58.833Z,18.59
2022-07-26T13:19:14.164Z,18.61
2022-07-26T13:22:20.033Z,18.67
2022-07-26T13:25:32.299Z,18.65
2022-07-26T13:28:49.924Z,18.69
2022-07-26T13:31:59.728Z,18.75
2022-07-26T13:35:22.114Z,18.81
2022-07-26T13:38:28.849Z,18.99
2022-07-26T13:41:37.037Z,19.12
2022-07-26T13:44:43.735Z,19.06
2022-07-26T13:47:49.494Z,19.10
2022-07-26T13:50:58.579Z,19.04
2022-07-26T13:54:08.830Z,19.12
2022-07-26T13:57:15.097Z,18.91
2022-07-26T14:00:21.234Z,19.07
2022-07-26T14:03:29.722Z,18.95
2022-07-26T14:06:40.754Z,18.99
2022-07-26T14:09:51.520Z,19.07
2022-07-26T14:12:57.325Z,19.00
2022-07-26T14:16:09.768Z,18.93
2022-07-26T14:19:15.339Z,18.99
2022-07-26T14:22:23.862Z,19.05
2022-07-26T14:25:33.200Z,18.81
2022-07-26T14:28:41.277Z,18.79
2022-07-26T14:31:47.304Z,18.85
2022-07-26T14:34:57.031Z,18.83
2022-07-26T14:38:05.299Z,18.81
2022-07-26T14:41:11.751Z,18.81
2022-07-26T14:44:17.306Z,18.83
2022-07-26T14:47:22.767Z,18.78
2022-07-26T14:50:35.013Z,18.62
2022-07-26T14:54:03.251Z,18.47
2022-07-26T14:57:09.164Z,18.25
2022-07-26T15:00:19.268Z,18.30
2022-07-26T15:03:24.942Z,18.33
2022-07-26T15:06:30.641Z,18.03
2022-07-26T15:09:38.796Z,18.25
2022-07-26T15:12:45.702Z,17.93
2022-07-26T15:15:51.224Z,17.89
2022-07-26T15:18:57.619Z,17.79
2022-07-26T15:22:03.178Z,17.94
2022-07-26T15:25:12.279Z,18.08
2022-07-26T15:28:20.590Z,18.14
2022-07-26T15:31:37.074Z,18.10
2022-07-26T15:34:43.517Z,18.20
2022-07-26T15:37:49.197Z,18.29
2022-07-26T15:40:59.547Z,18.03
2022-07-26T15:44:25.547Z,17.90
2022-07-26T15:47:52.816Z,17.99
2022-07-26T15:50:59.249Z,17.92
2022-07-26T15:54:14.728Z,17.99
2022-07-26T15:57:32.328Z,17.67
2022-07-26T16:00:57.731Z,17.85
2022-07-26T16:04:12.520Z,18.22
2022-07-26T16:07:18.281Z,18.24
2022-07-26T16:10:47.639Z,18.34
2022-07-26T16:14:21.219Z,18.43
2022-07-26T16:17:35.971Z,18.21
2022-07-26T16:20:48.323Z,18.01
2022-07-26T16:23:54.174Z,18.09
2022-07-26T16:26:59.805Z,18.16
2022-07-26T16:30:22.680Z,18.10
2022-07-26T16:33:34.448Z,17.83
2022-07-26T16:36:40.543Z,17.93
2022-07-26T16:39:46.125Z,17.99
2022-07-26T16:42:51.603Z,17.87
2022-07-26T16:45:59.808Z,17.62
2022-07-26T16:49:09.286Z,17.60
2022-07-26T16:52:15.749Z,17.28
2022-07-26T16:55:26.932Z,17.31
2022-07-26T16:58:36.791Z,17.29
2022-07-26T17:01:53.352Z,17.42
2022-07-26T17:04:59.856Z,17.40
2022-07-26T17:08:09.162Z,17.42
2022-07-26T17:11:14.911Z,17.41
2022-07-26T17:14:20.736Z,17.13
2022-07-26T17:17:38.994Z,16.97
2022-07-26T17:20:45.786Z,16.93
2022-07-26T17:23:51.689Z,17.06
2022-07-26T17:26:57.490Z,17.08
2022-07-26T17:30:06.549Z,16.94
2022-07-26T17:33:16.000Z,17.16
2022-07-26T17:36:27.920Z,17.14
2022-07-26T17:39:52.640Z,17.11
2022-07-26T17:42:59.254Z,16.96
2022-07-26T17:46:04.878Z,16.68
2022-07-26T17:49:19.603Z,16.49
2022-07-26T17:52:27.011Z,16.58
2022-07-26T17:55:32.569Z,16.57
2022-07-26T17:58:38.117Z,16.40
2022-07-26T18:01:53.504Z,16.49
2022-07-26T18:05:02.800Z,16.26
2022-07-26T18:08:09.617Z,16.31
2022-07-26T18:11:15.212Z,16.28
2022-07-26T18:14:21.337Z,16.19
2022-07-26T18:17:30.827Z,16.06
2022-07-26T18:20:51.440Z,16.07
2022-07-26T18:24:16.367Z,16.15
2022-07-26T18:27:23.635Z,16.09
2022-07-26T18:30:30.052Z,16.07
2022-07-26T18:33:49.574Z,15.87
2022-07-26T18:37:00.808Z,15.77
2022-07-26T18:40:12.206Z,15.85
2022-07-26T18:43:17.689Z,15.85
2022-07-26T18:46:26.425Z,15.83
2022-07-26T18:49:33.959Z,15.82
2022-07-26T18:52:45.609Z,15.71
2022-07-26T18:55:51.726Z,15.55
2022-07-26T18:58:57.290Z,15.46
2022-07-26T19:02:21.733Z,15.52
2022-07-26T19:05:36.499Z,15.34
2022-07-26T19:08:47.349Z,15.30
2022-07-26T19:11:53.368Z,15.11
2022-07-26T19:15:00.109Z,15.17
2022-07-26T19:18:16.249Z,15.21
2022-07-26T19:21:22.283Z,15.22
2022-07-26T19:24:32.493Z,15.12
2022-07-26T19:27:38.404Z,15.20
2022-07-26T19:30:45.193Z,15.26
2022-07-26T19:33:51.849Z,15.01
2022-07-26T19:37:02.410Z,14.94
2022-07-26T19:40:12.709Z,15.08
2022-07-26T19:43:18.381Z,15.17
2022-07-26T19:46:24.970Z,15.13
2022-07-26T19:49:30.871Z,15.18
2022-07-26T19:52:42.473Z,15.16
2022-07-26T19:55:50.671Z,15.18
2022-07-26T19:59:01.244Z,15.21
2022-07-26T20:02:22.877Z,15.22
2022-07-26T20:05:28.691Z,15.08
2022-07-26T20:08:40.398Z,15.07
2022-07-26T20:11:51.229Z,15.19
2022-07-26T20:14:56.897Z,15.26
2022-07-26T20:18:02.452Z,15.22
2022-07-26T20:21:08.071Z,15.21
2022-07-26T20:24:15.442Z,15.20
2022-07-26T20:27:23.885Z,15.12
2022-07-26T20:30:29.541Z,15.15
2022-07-26T20:33:40.746Z,15.09
2022-07-26T20:36:46.345Z,15.19
2022-07-26T20:39:58.285Z,15.17
2022-07-26T20:43:07.380Z,15.21
2022-07-26T20:46:13.121Z,15.16
2022-07-26T20:49:25.905Z,15.15
2022-07-26T20:52:31.689Z,15.11
2022-07-26T20:55:37.291Z,15.07
2022-07-26T20:58:45.495Z,15.29
2022-07-26T21:01:58.421Z,15.33
2022-07-26T21:05:17.565Z,15.35
2022-07-26T21:08:23.710Z,15.33
2022-07-26T21:11:29.272Z,15.39
2022-07-26T21:14:37.512Z,15.39
2022-07-26T21:17:54.341Z,15.32
2022-07-26T21:21:00.458Z,15.32
2022-07-26T21:24:22.870Z,15.34
2022-07-26T21:27:28.549Z,15.36
2022-07-26T21:30:36.793Z,15.30
2022-07-26T21:33:44.392Z,15.43
2022-07-26T21:36:57.552Z,15.37
2022-07-26T21:40:08.558Z,15.37
2022-07-26T21:43:14.422Z,15.19
2022-07-26T21:46:22.609Z,15.18
2022-07-26T21:49:28.273Z,15.14
2022-07-26T21:52:39.641Z,15.08
2022-07-26T21:55:45.267Z,15.10
2022-07-26T21:58:51.415Z,15.15
2022-07-26T22:02:01.122Z,15.13
2022-07-26T22:05:34.043Z,15.10
2022-07-26T22:08:41.044Z,15.07
2022-07-26T22:11:56.599Z,15.10
2022-07-26T22:15:02.185Z,15.10
2022-07-26T22:18:11.159Z,15.14
2022-07-26T22:21:16.969Z,15.12
2022-07-26T22:24:22.766Z,15.08
2022-07-26T22:27:28.636Z,14.93
2022-07-26T22:30:34.982Z,14.86
2022-07-26T22:33:43.233Z,14.85
2022-07-26T22:36:48.774Z,14.78
2022-07-26T22:39:54.314Z,14.80
2022-07-26T22:43:01.602Z,14.80
2022-07-26T22:46:07.801Z,14.79
2022-07-26T22:49:16.302Z,14.90
2022-07-26T22:52:22.013Z,14.88
2022-07-26T22:55:29.137Z,14.92
2022-07-26T22:58:34.714Z,14.87
2022-07-26T23:01:40.342Z,14.65
2022-07-26T23:04:50.580Z,14.58
2022-07-26T23:07:59.185Z,14.37
2022-07-26T23:11:15.454Z,14.28
2022-07-26T23:14:21.144Z,14.28
2022-07-26T23:17:27.535Z,14.16
2022-07-26T23:20:37.219Z,14.31
2022-07-26T23:23:42.803Z,14.22
2022-07-26T23:26:48.340Z,14.16
2022-07-26T23:29:53.908Z,14.17
2022-07-26T23:32:59.496Z,14.08
2022-07-26T23:36:08.509Z,14.09
2022-07-26T23:39:15.058Z,14.11
2022-07-26T23:42:20.718Z,14.04
2022-07-26T23:45:26.692Z,13.95
2022-07-26T23:48:33.626Z,13.81
2022-07-26T23:51:41.819Z,13.81
2022-07-26T23:54:47.417Z,13.92
2022-07-26T23:57:52.948Z,13.83
